Putnam County Regional (GPC)

 

Airport Diagram
No Airport Diagram Available
Current Weather/Forecast (VFR Conditions)
METAR KGPC 190035Z AUTO 24004KT 10SM SCT100 BKN120 13/03 A2989 RMK AO2 T01290027
TAF

Airport Information

All Charts
General
Chart Name View
TAKEOFF MINIMUMS
TAKEOFF MINIMUMS

Approaches
Chart Name Download
RNAV (GPS) RWY 18
RNAV (GPS) RWY 36
VOR-A
RNAV (GPS) RWY 18
RNAV (GPS) RWY 36
VOR-A


Airport Statistics
Departures Arrivals Local
All Collected Stats since June 2016: 10 5 0
2021 Stats: 9 3 0
April Stats: 0 0 0

Inbound Traffic (Arrivals) - 0

No inbound traffic.


Outbound Traffic (Departures) - 0

No outbound traffic.


Local Traffic (Pattern) - 0

No local traffic.